Time;durP1;ratioP1;P1;durP2;ratioP2;P2;SDS_P1;SDS_P2;PMS_P1;PMS_P2;Temp;Humidity;BMP_temperature;BMP_pressure;BME280_temperature;BME280_humidity;BME280_pressure;Samples;Min_cycle;Max_cycle;Signal;HPM_P1;HPM_P2
2024/01/09 00:02:21;;;;;;;9.70;7.55;;;;;;;-0.83;100.00;61913.97;5088391;28;20426;-79
2024/01/09 00:04:48;;;;;;;10.35;7.40;;;;;;;-0.84;100.00;61915.94;5090976;28;20224;-78
2024/01/09 00:07:15;;;;;;;9.68;7.75;;;;;;;-0.79;100.00;61921.06;5085430;28;20207;-80
2024/01/09 00:09:42;;;;;;;9.55;7.60;;;;;;;-0.81;100.00;61916.50;5087332;28;20225;-79
2024/01/09 00:12:10;;;;;;;9.00;6.68;;;;;;;-0.75;100.00;61920.16;5082966;28;20200;-77
2024/01/09 00:14:37;;;;;;;10.35;7.20;;;;;;;-1.00;100.00;61897.06;5079532;28;20254;-77
2024/01/09 00:17:04;;;;;;;9.13;7.25;;;;;;;-0.92;100.00;61904.75;5087276;28;20197;-80
2024/01/09 00:19:33;;;;;;;7.88;7.00;;;;;;;-0.85;100.00;61912.44;5087229;28;20247;-79
2024/01/09 00:22:01;;;;;;;9.65;7.18;;;;;;;-0.81;100.00;61918.50;5087048;28;20216;-78
2024/01/09 00:24:28;;;;;;;10.07;7.22;;;;;;;-0.78;100.00;61919.06;5090024;28;20216;-78
2024/01/09 00:26:55;;;;;;;8.63;6.82;;;;;;;-0.67;100.00;61927.84;5086847;28;20196;-78
2024/01/09 00:29:23;;;;;;;8.73;7.00;;;;;;;-0.70;100.00;61927.25;5084028;28;20216;-78
2024/01/09 00:31:50;;;;;;;10.73;7.18;;;;;;;-0.79;100.00;61918.03;5086150;28;20219;-78
2024/01/09 00:34:17;;;;;;;9.93;7.47;;;;;;;-0.87;100.00;61912.34;5084897;28;21034;-80
2024/01/09 00:36:44;;;;;;;8.40;7.47;;;;;;;-0.77;100.00;61925.59;5091163;28;20200;-77
2024/01/09 00:39:11;;;;;;;10.38;7.15;;;;;;;-0.76;100.00;61921.63;5087244;28;20232;-77
2024/01/09 00:41:38;;;;;;;9.07;6.43;;;;;;;-0.73;100.00;61924.72;5086343;28;20215;-78
2024/01/09 00:44:05;;;;;;;8.02;6.53;;;;;;;-0.73;100.00;61924.72;5083232;28;20220;-77
2024/01/09 00:46:33;;;;;;;10.60;7.45;;;;;;;-0.74;100.00;61926.19;5089693;28;20197;-79
2024/01/09 00:49:00;;;;;;;9.05;7.18;;;;;;;-0.65;100.00;61932.91;5086961;28;20218;-79
2024/01/09 00:51:27;;;;;;;12.63;7.93;;;;;;;-0.71;100.00;61926.75;5088331;28;20227;-78
2024/01/09 00:53:55;;;;;;;9.35;7.22;;;;;;;-0.59;100.00;61939.06;5085563;28;20373;-79
2024/01/09 00:56:22;;;;;;;10.15;7.75;;;;;;;-0.52;100.00;61948.69;5083455;28;20204;-79
2024/01/09 00:58:49;;;;;;;10.57;8.57;;;;;;;-0.91;100.00;61911.28;5087436;28;20203;-80
2024/01/09 01:01:16;;;;;;;11.10;7.95;;;;;;;-0.98;100.00;61896.13;5084884;28;20546;-78
2024/01/09 01:03:45;;;;;;;10.80;7.97;;;;;;;-0.83;100.00;61913.97;5094816;28;20193;-78
2024/01/09 01:06:11;;;;;;;11.05;7.88;;;;;;;-0.75;100.00;61922.16;5087737;28;20204;-78
2024/01/09 01:08:38;;;;;;;9.20;7.65;;;;;;;-0.75;100.00;61917.16;5091566;28;20265;-77
2024/01/09 01:11:06;;;;;;;9.77;7.07;;;;;;;-0.80;100.00;61924.53;5088238;28;20222;-80
2024/01/09 01:13:33;;;;;;;8.60;6.30;;;;;;;-0.72;100.00;61925.22;5088800;28;20193;-78
2024/01/09 01:16:01;;;;;;;9.13;6.43;;;;;;;-0.71;100.00;61928.75;5087113;28;20504;-79
2024/01/09 01:18:28;;;;;;;9.65;7.57;;;;;;;-0.84;100.00;61912.94;5091099;28;20224;-78
2024/01/09 01:20:56;;;;;;;13.10;7.97;;;;;;;-0.81;100.00;61913.50;5086936;28;20521;-79
2024/01/09 01:23:23;;;;;;;10.93;7.65;;;;;;;-0.83;100.00;61914.47;5088621;28;20192;-78
2024/01/09 01:25:50;;;;;;;10.25;7.03;;;;;;;-0.80;100.00;61915.03;5089273;28;20514;-78
2024/01/09 01:28:17;;;;;;;7.13;5.90;;;;;;;-0.77;100.00;61920.09;5092381;28;20246;-77
2024/01/09 01:30:44;;;;;;;8.95;7.10;;;;;;;-0.69;100.00;61928.78;5094052;28;20224;-78
2024/01/09 01:33:11;;;;;;;8.10;6.63;;;;;;;-0.66;100.00;61939.38;5089830;28;20224;-79
2024/01/09 01:35:38;;;;;;;10.52;6.78;;;;;;;-0.59;100.00;61941.56;5088938;28;20235;-80
2024/01/09 01:38:07;;;;;;;10.20;6.93;;;;;;;-0.53;100.00;61945.19;5079568;28;20212;-79
2024/01/09 01:40:34;;;;;;;7.55;6.57;;;;;;;-0.67;100.00;61930.34;5087123;28;20223;-78
2024/01/09 01:43:01;;;;;;;8.13;6.85;;;;;;;-0.57;100.00;61943.59;5089939;28;20204;-79
2024/01/09 01:45:28;;;;;;;7.05;5.95;;;;;;;-0.54;100.00;61946.16;5090732;28;20228;-79
2024/01/09 01:47:55;;;;;;;7.38;6.10;;;;;;;-0.64;100.00;61933.41;5084966;28;20196;-79
2024/01/09 01:50:22;;;;;;;8.02;6.38;;;;;;;-0.66;100.00;61931.38;5092205;28;20213;-78
2024/01/09 01:52:48;;;;;;;7.32;5.70;;;;;;;-0.69;100.00;61928.78;5091270;28;20257;-77
2024/01/09 01:55:18;;;;;;;8.15;6.35;;;;;;;-0.64;100.00;61933.91;5088227;28;20263;-79
2024/01/09 01:57:45;;;;;;;5.97;5.25;;;;;;;-0.74;100.00;61921.19;5087381;28;20209;-81
2024/01/09 02:00:13;;;;;;;6.07;5.13;;;;;;;-0.62;100.00;61938.47;5091518;28;20220;-77
2024/01/09 02:02:40;;;;;;;7.20;5.30;;;;;;;-0.63;100.00;61936.94;5089804;28;20204;-78
2024/01/09 02:05:07;;;;;;;6.15;5.53;;;;;;;-0.59;100.00;61936.56;5085615;28;20283;-79
2024/01/09 02:07:35;;;;;;;5.28;4.78;;;;;;;-0.60;100.00;61947.50;5088613;28;20581;-79
2024/01/09 02:10:02;;;;;;;7.03;5.20;;;;;;;-0.74;100.00;61920.69;5089896;28;20216;-78
2024/01/09 02:12:30;;;;;;;6.35;5.43;;;;;;;-0.63;100.00;61934.94;5097139;28;20209;-79
2024/01/09 02:14:57;;;;;;;7.43;6.03;;;;;;;-0.61;100.00;61942.00;5089679;28;20232;-80
2024/01/09 02:17:25;;;;;;;5.05;4.65;;;;;;;-0.61;100.00;61933.97;5088718;28;20211;-79
2024/01/09 02:19:52;;;;;;;5.45;4.95;;;;;;;-0.65;100.00;61929.88;5085672;28;20220;-79
2024/01/09 02:22:19;;;;;;;7.35;5.60;;;;;;;-0.63;100.00;61931.94;5088093;28;20201;-79
2024/01/09 02:24:46;;;;;;;5.15;4.65;;;;;;;-0.60;100.00;61943.03;5089483;28;20283;-77
2024/01/09 02:27:19;;;;;;;5.45;4.95;;;;;;;-0.58;100.00;61942.56;5088257;28;20201;-77
2024/01/09 02:29:49;;;;;;;6.18;5.55;;;;;;;-0.70;100.00;61924.75;5089849;28;20232;-77
2024/01/09 02:32:16;;;;;;;5.75;5.15;;;;;;;-0.76;100.00;61921.63;5093058;28;20200;-79
2024/01/09 02:34:43;;;;;;;7.65;5.65;;;;;;;-0.74;100.00;61921.19;5087810;28;20232;-78
2024/01/09 02:37:10;;;;;;;7.28;5.75;;;;;;;-0.65;100.00;61932.38;5088079;28;20208;-78
2024/01/09 02:39:37;;;;;;;6.32;5.30;;;;;;;-0.61;100.00;61939.50;5087768;28;20296;-79
2024/01/09 02:42:05;;;;;;;7.93;6.20;;;;;;;-0.59;100.00;61944.06;5087376;28;20208;-80
2024/01/09 02:44:32;;;;;;;9.38;6.47;;;;;;;-0.57;100.00;61943.09;5091811;28;20224;-77
2024/01/09 02:47:01;;;;;;;10.88;7.82;;;;;;;-0.56;100.00;61944.09;5087559;28;20208;-78
2024/01/09 02:49:28;;;;;;;9.50;8.25;;;;;;;-0.65;100.00;61932.91;5086061;28;20262;-78
2024/01/09 02:51:55;;;;;;;8.55;7.22;;;;;;;-0.63;100.00;61934.94;5083846;28;20192;-79
2024/01/09 02:54:22;;;;;;;10.85;8.07;;;;;;;-0.70;100.00;61930.28;5088711;28;20248;-77
2024/01/09 02:56:50;;;;;;;8.07;6.97;;;;;;;-0.81;100.00;61916.00;5089060;28;20201;-78
2024/01/09 02:59:16;;;;;;;11.18;6.93;;;;;;;-0.77;100.00;61920.09;5087975;28;20224;-79
2024/01/09 03:01:44;;;;;;;9.63;6.88;;;;;;;-0.82;100.00;61914.97;5089867;28;20201;-80
2024/01/09 03:04:12;;;;;;;10.75;7.25;;;;;;;-0.87;100.00;61910.38;5088620;28;20235;-79
2024/01/09 03:06:39;;;;;;;9.68;6.38;;;;;;;-0.76;100.00;61923.63;5086333;28;20282;-79
2024/01/09 03:09:06;;;;;;;9.57;6.60;;;;;;;-0.76;100.00;61919.13;5089784;28;20216;-79
2024/01/09 03:11:33;;;;;;;7.75;6.22;;;;;;;-0.74;100.00;61923.19;5090141;28;20209;-80
2024/01/09 03:14:00;;;;;;;6.80;6.05;;;;;;;-0.72;100.00;61928.22;5087019;28;20197;-80
2024/01/09 03:16:27;;;;;;;8.18;6.43;;;;;;;-0.74;100.00;61925.69;5081550;28;20239;-80
2024/01/09 03:18:54;;;;;;;8.68;6.55;;;;;;;-0.72;100.00;61933.22;5090609;28;20208;-80
2024/01/09 03:21:22;;;;;;;7.82;5.95;;;;;;;-0.79;100.00;61925.53;5086999;28;20204;-78
2024/01/09 03:23:49;;;;;;;7.68;5.90;;;;;;;-0.89;100.00;61908.31;5087264;28;20201;-78
2024/01/09 03:26:16;;;;;;;7.47;5.10;;;;;;;-0.90;100.00;61904.81;5084531;28;20228;-78
2024/01/09 03:28:43;;;;;;;6.63;4.90;;;;;;;-0.87;100.00;61907.88;5088133;28;20214;-77
2024/01/09 03:31:19;;;;;;;4.55;3.80;;;;;;;-0.93;100.00;61901.22;5096040;28;20494;-79
2024/01/09 03:33:46;;;;;;;3.80;2.95;;;;;;;-0.94;100.00;61905.19;5085081;28;20212;-80
2024/01/09 03:36:13;;;;;;;3.72;3.42;;;;;;;-0.98;100.00;61899.09;5083236;28;20228;-79
2024/01/09 03:38:42;;;;;;;4.88;3.85;;;;;;;-0.97;100.00;61902.13;5086652;28;20208;-78
2024/01/09 03:41:09;;;;;;;4.65;3.35;;;;;;;-1.05;100.00;61894.44;5085881;28;20225;-78
2024/01/09 03:43:35;;;;;;;2.90;2.70;;;;;;;-1.07;100.00;61889.88;5083730;28;20238;-81
2024/01/09 03:46:02;;;;;;;3.33;3.13;;;;;;;-1.05;100.00;61891.94;5088906;28;20231;-78
2024/01/09 03:48:30;;;;;;;3.33;3.03;;;;;;;-1.19;100.00;61880.63;5088668;28;20279;-81
2024/01/09 03:50:56;;;;;;;2.90;2.70;;;;;;;-1.63;100.00;61832.59;5084027;28;20433;-78
2024/01/09 03:53:23;;;;;;;3.53;3.22;;;;;;;-1.49;100.00;61846.91;5088540;28;20232;-79
2024/01/09 03:55:51;;;;;;;3.85;3.47;;;;;;;-1.31;100.00;61868.34;5093457;28;20255;-81
2024/01/09 03:58:18;;;;;;;4.22;3.72;;;;;;;-1.22;100.00;61875.06;5085894;28;20209;-79
2024/01/09 04:00:45;;;;;;;4.47;4.07;;;;;;;-1.46;100.00;61848.00;5085666;28;20217;-82
2024/01/09 04:03:12;;;;;;;4.82;4.32;;;;;;;-1.29;100.00;61864.88;5087293;28;20207;-82
2024/01/09 04:05:39;;;;;;;4.18;3.28;;;;;;;-1.31;100.00;61862.81;5085918;28;20224;-80
2024/01/09 04:08:06;;;;;;;5.20;4.38;;;;;;;-1.21;100.00;61876.06;5086504;28;20204;-80
2024/01/09 04:10:33;;;;;;;4.57;4.05;;;;;;;-1.15;100.00;61881.72;5088943;28;20220;-81
2024/01/09 04:13:02;;;;;;;5.82;4.30;;;;;;;-1.21;100.00;61875.56;5086668;28;20202;-82
2024/01/09 04:15:29;;;;;;;4.25;3.80;;;;;;;-1.16;100.00;61880.69;5091891;28;20254;-80
2024/01/09 04:17:56;;;;;;;5.13;4.63;;;;;;;-1.01;100.00;61900.53;5086886;28;20304;-78
2024/01/09 04:20:23;;;;;;;4.85;4.43;;;;;;;-1.03;100.00;61891.50;5086808;28;20221;-79
2024/01/09 04:22:49;;;;;;;5.57;5.05;;;;;;;-0.94;100.00;61902.69;5088195;28;20197;-79
2024/01/09 04:25:16;;;;;;;7.60;6.50;;;;;;;-0.93;100.00;61898.72;5085617;28;20220;-81
2024/01/09 04:27:43;;;;;;;6.78;5.47;;;;;;;-0.83;100.00;61916.97;5083560;28;20219;-78
2024/01/09 04:30:12;;;;;;;8.90;6.50;;;;;;;-0.99;100.00;61900.59;5083481;28;20217;-78
2024/01/09 04:32:39;;;;;;;9.45;7.32;;;;;;;-0.95;100.00;61909.16;5086102;28;20197;-78
2024/01/09 04:35:07;;;;;;;6.78;5.97;;;;;;;-1.02;100.00;61897.00;5089074;28;20263;-77
2024/01/09 04:37:34;;;;;;;7.15;5.97;;;;;;;-1.02;100.00;61897.00;5092040;28;20204;-77
2024/01/09 04:40:01;;;;;;;6.50;5.55;;;;;;;-0.97;100.00;61894.63;5092889;28;20463;-77
2024/01/09 04:42:28;;;;;;;8.10;6.32;;;;;;;-1.00;100.00;61899.56;5088959;28;20236;-79
2024/01/09 04:44:55;;;;;;;7.90;5.80;;;;;;;-0.99;100.00;61900.06;5087920;28;20338;-78
2024/01/09 04:47:23;;;;;;;8.40;5.15;;;;;;;-0.99;100.00;61895.06;5085820;28;20250;-79
2024/01/09 04:49:50;;;;;;;5.22;4.72;;;;;;;-0.97;100.00;61904.63;5086515;28;20228;-80
2024/01/09 04:52:17;;;;;;;6.70;6.00;;;;;;;-0.96;100.00;61901.16;5092213;28;20201;-80
2024/01/09 04:54:44;;;;;;;7.63;5.20;;;;;;;-0.97;100.00;61902.13;5091682;28;20434;-78
2024/01/09 04:57:11;;;;;;;5.30;4.43;;;;;;;-0.99;100.00;61897.56;5093458;28;20534;-80
2024/01/09 04:59:38;;;;;;;6.32;4.85;;;;;;;-0.91;100.00;61903.25;5087208;28;20217;-82
2024/01/09 05:02:04;;;;;;;4.63;4.22;;;;;;;-1.04;100.00;61892.97;5090149;28;20197;-81
2024/01/09 05:04:33;;;;;;;6.18;4.70;;;;;;;-1.00;100.00;61894.06;5092960;28;20217;-79
2024/01/09 05:06:59;;;;;;;5.43;4.68;;;;;;;-0.95;100.00;61901.69;5090337;28;20207;-81
2024/01/09 05:09:25;;;;;;;5.25;4.75;;;;;;;-1.19;100.00;61878.13;5088769;28;20216;-79
2024/01/09 05:11:52;;;;;;;4.68;4.28;;;;;;;-1.03;100.00;61895.97;5088533;28;20201;-82
2024/01/09 05:14:19;;;;;;;3.42;3.20;;;;;;;-1.25;100.00;61868.97;5089509;28;20455;-82
2024/01/09 05:16:46;;;;;;;6.18;4.57;;;;;;;-1.19;100.00;61880.63;5093739;28;20304;-78
2024/01/09 05:19:13;;;;;;;4.60;3.78;;;;;;;-1.23;100.00;61871.03;5088200;28;20398;-80
2024/01/09 05:21:41;;;;;;;5.07;4.25;;;;;;;-1.22;100.00;61874.53;5088684;28;20205;-78
2024/01/09 05:24:08;;;;;;;4.63;4.22;;;;;;;-1.11;100.00;61888.31;5079296;28;20221;-78
2024/01/09 05:26:35;;;;;;;4.15;3.85;;;;;;;-1.23;100.00;61873.53;5086320;28;20203;-78
2024/01/09 05:29:02;;;;;;;6.10;4.05;;;;;;;-1.14;100.00;61884.72;5092090;28;20197;-78
2024/01/09 05:31:29;;;;;;;3.33;3.13;;;;;;;-1.05;100.00;61888.94;5090972;28;20257;-78
2024/01/09 05:33:56;;;;;;;2.70;2.53;;;;;;;-1.02;100.00;61894.50;5091136;28;20197;-78
2024/01/09 05:36:26;;;;;;;3.28;3.08;;;;;;;-0.97;100.00;61897.13;5091951;28;20228;-80
2024/01/09 05:38:54;;;;;;;3.30;3.00;;;;;;;-0.95;100.00;61904.69;5094206;28;20236;-79
2024/01/09 05:41:21;;;;;;;2.97;2.75;;;;;;;-0.89;100.00;61907.81;5092205;28;20254;-82
2024/01/09 05:43:49;;;;;;;2.72;2.55;;;;;;;-0.89;100.00;61903.34;5087870;28;20259;-79
2024/01/09 05:46:16;;;;;;;2.70;2.50;;;;;;;-0.86;100.00;61913.88;5088825;28;20197;-78
2024/01/09 05:48:43;;;;;;;3.05;2.75;;;;;;;-0.85;100.00;61912.44;5086105;28;20247;-78
2024/01/09 05:51:11;;;;;;;2.80;2.60;;;;;;;-0.87;100.00;61909.84;5091649;28;20224;-80
2024/01/09 05:53:38;;;;;;;3.03;2.83;;;;;;;-0.86;100.00;61910.91;5095036;28;20260;-81
2024/01/09 05:56:07;;;;;;;2.83;2.63;;;;;;;-1.00;100.00;61896.56;5094779;28;20533;-77
2024/01/09 05:58:34;;;;;;;3.10;2.90;;;;;;;-0.93;100.00;61901.72;5089505;28;20203;-80
2024/01/09 06:01:01;;;;;;;2.85;2.60;;;;;;;-0.84;100.00;61915.44;5089412;28;20223;-79
2024/01/09 06:03:28;;;;;;;3.55;3.25;;;;;;;-0.83;100.00;61916.47;5086821;28;20552;-77
2024/01/09 06:05:56;;;;;;;3.80;3.10;;;;;;;-0.68;100.00;61931.81;5088456;28;20224;-82
2024/01/09 06:08:23;;;;;;;3.75;3.42;;;;;;;-0.77;100.00;61922.59;5091570;28;20193;-77
2024/01/09 06:10:49;;;;;;;3.55;3.25;;;;;;;-0.68;100.00;61932.34;5087638;28;20220;-79
2024/01/09 06:13:18;;;;;;;3.05;2.85;;;;;;;-0.59;100.00;61939.06;5090877;28;20205;-79
2024/01/09 06:15:45;;;;;;;2.65;2.45;;;;;;;-0.53;100.00;61945.19;5087200;28;20236;-81
2024/01/09 06:18:12;;;;;;;2.35;2.25;;;;;;;-0.51;100.00;61949.75;5091485;28;20207;-80
2024/01/09 06:20:39;;;;;;;3.22;3.03;;;;;;;-0.91;100.00;61908.78;5091434;28;20469;-81
2024/01/09 06:23:06;;;;;;;2.83;2.55;;;;;;;-0.99;100.00;61895.59;5090643;28;20208;-79
2024/01/09 06:25:33;;;;;;;3.00;2.78;;;;;;;-1.19;100.00;61880.63;5087190;28;20241;-80
2024/01/09 06:28:00;;;;;;;2.78;2.50;;;;;;;-1.30;100.00;61863.88;5089679;28;20306;-82
2024/01/09 06:30:30;;;;;;;2.83;2.58;;;;;;;-1.36;100.00;61857.72;5092870;28;20220;-79
2024/01/09 06:32:57;;;;;;;8.75;3.40;;;;;;;-1.45;100.00;61854.00;5092792;28;20199;-79
2024/01/09 06:35:24;;;;;;;3.75;3.35;;;;;;;-1.60;100.00;61836.16;5091684;28;20221;-82
2024/01/09 06:37:51;;;;;;;3.40;3.20;;;;;;;-1.37;100.00;61859.72;5090101;28;20208;-79
2024/01/09 06:40:19;;;;;;;3.85;3.55;;;;;;;-1.20;100.00;61874.09;5089732;28;20227;-80
2024/01/09 06:42:47;;;;;;;4.60;2.75;;;;;;;-1.36;100.00;61863.22;5090154;28;20207;-80
2024/01/09 06:45:15;;;;;;;3.38;3.08;;;;;;;-1.06;100.00;61890.41;5094149;28;20337;-80
2024/01/09 06:47:44;;;;;;;3.55;3.35;;;;;;;-1.09;100.00;61892.34;5091301;28;20214;-80
2024/01/09 06:50:11;;;;;;;3.03;2.83;;;;;;;-1.46;100.00;61850.50;5089876;28;20239;-79
2024/01/09 06:52:39;;;;;;;5.50;3.38;;;;;;;-1.68;100.00;61830.50;5090346;28;20196;-80
2024/01/09 06:55:06;;;;;;;4.25;3.63;;;;;;;-1.45;100.00;61851.50;5096864;28;20224;-82
2024/01/09 06:57:33;;;;;;;3.72;3.42;;;;;;;-1.64;100.00;61832.06;5089445;28;20533;-82
2024/01/09 07:00:02;;;;;;;3.33;3.03;;;;;;;-1.80;100.00;61820.72;5089746;28;20420;-80
2024/01/09 07:02:29;;;;;;;3.80;3.50;;;;;;;-1.74;100.00;61826.31;5090710;28;20513;-80
2024/01/09 07:04:57;;;;;;;3.00;2.80;;;;;;;-1.60;100.00;61833.16;5088272;28;20244;-78
2024/01/09 07:07:24;;;;;;;3.63;3.20;;;;;;;-1.70;100.00;61823.44;5092043;28;20226;-82
2024/01/09 07:09:51;;;;;;;4.40;4.00;;;;;;;-2.02;100.00;61793.19;5091855;28;20216;-81
2024/01/09 07:12:18;;;;;;;3.95;3.63;;;;;;;-1.91;100.00;61804.47;5090714;28;20204;-79
2024/01/09 07:14:44;;;;;;;4.88;4.32;;;;;;;-1.81;100.00;61817.19;5094083;28;20220;-80
2024/01/09 07:17:11;;;;;;;7.47;4.63;;;;;;;-1.75;100.00;61823.31;5088735;28;20243;-80
2024/01/09 07:19:38;;;;;;;4.40;3.95;;;;;;;-1.59;100.00;61837.19;5091408;28;20387;-78
2024/01/09 07:22:07;;;;;;;4.40;4.00;;;;;;;-1.43;100.00;61855.53;5091237;28;20267;-81
2024/01/09 07:24:34;;;;;;;5.47;4.20;;;;;;;-1.41;100.00;61858.09;5089304;28;20296;-81
2024/01/09 07:27:02;;;;;;;4.55;4.13;;;;;;;-1.31;100.00;61860.84;5090099;28;20239;-80
2024/01/09 07:29:29;;;;;;;4.28;3.80;;;;;;;-1.35;100.00;61861.25;5090911;28;20215;-81
2024/01/09 07:31:56;;;;;;;4.68;4.28;;;;;;;-1.22;100.00;61872.03;5091183;28;20414;-80
2024/01/09 07:34:22;;;;;;;7.18;5.57;;;;;;;-1.29;100.00;61872.38;5103038;28;20224;-79
2024/01/09 07:36:49;;;;;;;12.98;7.57;;;;;;;-1.32;100.00;61867.31;5087539;28;20262;-80
2024/01/09 07:39:18;;;;;;;13.15;8.57;;;;;;;-1.24;100.00;61870.00;5084966;28;20225;-79
2024/01/09 07:41:45;;;;;;;5.13;4.57;;;;;;;-1.34;100.00;61865.28;5092832;28;20269;-81
2024/01/09 07:44:13;;;;;;;7.68;4.65;;;;;;;-1.99;100.00;61791.28;5091541;28;20444;-79
2024/01/09 07:46:42;;;;;;;2.25;2.15;;;;;;;-2.38;100.00;61758.88;5092261;28;20207;-79
2024/01/09 07:49:09;;;;;;;5.10;4.63;;;;;;;-2.60;100.00;61736.41;5090814;28;20556;-81
2024/01/09 07:51:36;;;;;;;7.07;4.93;;;;;;;-2.56;100.00;61740.50;5089546;28;20216;-81
2024/01/09 07:54:03;;;;;;;4.70;4.30;;;;;;;-2.47;100.00;61750.19;5088360;28;20536;-82
2024/01/09 07:56:32;;;;;;;5.15;4.65;;;;;;;-2.52;100.00;61744.59;5089633;28;20575;-78
2024/01/09 07:58:59;;;;;;;6.78;4.97;;;;;;;-2.43;100.00;61746.81;5091764;28;20268;-79
2024/01/09 08:01:28;;;;;;;6.05;5.43;;;;;;;-2.36;100.00;61763.44;5089498;28;20204;-82
2024/01/09 08:03:55;;;;;;;7.60;5.10;;;;;;;-2.48;100.00;61743.69;5093169;28;20256;-80
2024/01/09 08:06:23;;;;;;;5.32;4.82;;;;;;;-2.65;100.00;61731.28;5088674;28;20550;-82
2024/01/09 08:08:50;;;;;;;6.65;4.95;;;;;;;-2.72;100.00;61721.66;5088822;28;20204;-80
2024/01/09 08:11:16;;;;;;;5.80;4.57;;;;;;;-2.80;100.00;61711.00;5079129;28;20197;-81
2024/01/09 08:13:47;;;;;;;5.50;4.57;;;;;;;-2.81;100.00;61712.97;5088301;28;20223;-80
2024/01/09 08:16:14;;;;;;;6.18;5.30;;;;;;;-2.85;100.00;61708.88;5089161;28;20192;-82
2024/01/09 08:18:41;;;;;;;6.75;5.15;;;;;;;-2.77;100.00;61719.03;5086846;28;20197;-81
2024/01/09 08:21:08;;;;;;;6.53;5.75;;;;;;;-2.88;100.00;61705.81;5089384;28;20216;-82
2024/01/09 08:23:36;;;;;;;6.22;5.30;;;;;;;-2.81;100.00;61712.97;5092208;28;20196;-83
2024/01/09 08:26:03;;;;;;;10.98;6.30;;;;;;;-2.71;100.00;61720.69;5085289;28;20252;-79
2024/01/09 08:28:30;;;;;;;6.40;5.43;;;;;;;-2.67;100.00;61729.25;5078738;28;20196;-81
2024/01/09 08:30:58;;;;;;;7.57;5.88;;;;;;;-2.43;100.00;61753.78;5088961;28;20571;-82
2024/01/09 08:33:25;;;;;;;7.97;5.90;;;;;;;-2.65;100.00;61729.31;5084201;28;20200;-82
2024/01/09 08:35:52;;;;;;;6.38;5.68;;;;;;;-2.48;100.00;61748.66;5090225;28;20440;-80
2024/01/09 08:38:19;;;;;;;6.30;5.70;;;;;;;-2.71;100.00;61722.69;5088069;28;20228;-79
2024/01/09 08:40:51;;;;;;;8.27;6.47;;;;;;;-2.55;100.00;61741.50;5089929;28;20325;-82
2024/01/09 08:43:17;;;;;;;8.93;6.68;;;;;;;-2.76;100.00;61720.06;5096735;28;20192;-80
2024/01/09 08:45:46;;;;;;;11.30;7.28;;;;;;;-2.39;100.00;61755.91;5091483;28;20224;-83
2024/01/09 08:48:15;;;;;;;8.63;6.32;;;;;;;-2.34;100.00;61760.50;5090203;28;20227;-81
2024/01/09 08:50:42;;;;;;;10.80;6.95;;;;;;;-2.03;100.00;61794.69;5093598;28;20247;-84
2024/01/09 08:53:09;;;;;;;8.50;6.80;;;;;;;-2.08;100.00;61789.56;5098772;28;20224;-85
2024/01/09 08:55:36;;;;;;;8.80;7.05;;;;;;;-1.81;100.00;61816.69;5090102;28;20229;-84
2024/01/09 08:58:03;;;;;;;8.32;6.72;;;;;;;-1.87;100.00;61808.56;5091078;28;20228;-85
2024/01/09 09:00:30;;;;;;;10.27;7.18;;;;;;;-1.66;100.00;61829.53;5090159;28;20454;-84
2024/01/09 09:02:57;;;;;;;6.72;6.03;;;;;;;-1.72;100.00;61823.38;5089989;28;20228;-82
2024/01/09 09:05:25;;;;;;;9.65;6.82;;;;;;;-2.26;100.00;61770.66;5089223;28;20520;-85
2024/01/09 09:07:53;;;;;;;11.25;6.95;;;;;;;-2.15;100.00;61781.91;5091189;28;20203;-81
2024/01/09 09:10:20;;;;;;;8.30;6.57;;;;;;;-1.85;100.00;61810.09;5091036;28;20212;-83
2024/01/09 09:12:47;;;;;;;10.88;7.07;;;;;;;-1.76;100.00;61819.31;5089252;28;20201;-80
2024/01/09 09:15:14;;;;;;;9.95;6.93;;;;;;;-1.52;100.00;61841.34;5088531;28;20238;-80
2024/01/09 09:17:41;;;;;;;7.68;5.53;;;;;;;-1.40;100.00;61856.63;5094895;28;20227;-81
2024/01/09 09:20:09;;;;;;;8.68;6.63;;;;;;;-1.50;100.00;61846.41;5090004;28;20229;-79
2024/01/09 09:22:38;;;;;;;8.07;6.78;;;;;;;-1.40;100.00;61853.63;5097969;28;20246;-80
2024/01/09 09:25:06;;;;;;;10.02;6.30;;;;;;;-1.69;100.00;61826.97;5092473;28;20251;-81
2024/01/09 09:27:34;;;;;;;9.75;6.65;;;;;;;-1.72;100.00;61826.38;5091041;28;20563;-82
2024/01/09 09:30:01;;;;;;;8.20;6.65;;;;;;;-1.55;100.00;61838.28;5092318;28;20583;-82
2024/01/09 09:32:28;;;;;;;9.10;6.88;;;;;;;-1.41;100.00;61848.13;5092609;28;20201;-79
2024/01/09 09:34:55;;;;;;;8.45;6.85;;;;;;;-1.28;100.00;61866.41;5091416;28;20212;-81
2024/01/09 09:37:22;;;;;;;8.82;6.18;;;;;;;-1.47;100.00;61848.97;5090068;28;20288;-81
2024/01/09 09:39:49;;;;;;;10.32;6.53;;;;;;;-1.66;100.00;61834.50;5092347;28;20252;-81
2024/01/09 09:42:16;;;;;;;6.20;5.60;;;;;;;-1.32;100.00;61867.31;5095727;28;20264;-80
2024/01/09 09:44:43;;;;;;;7.13;6.43;;;;;;;-1.02;100.00;61892.53;5089180;28;20524;-78
2024/01/09 09:47:11;;;;;;;10.38;5.85;;;;;;;-1.17;100.00;61882.66;5090703;28;20201;-81
2024/01/09 09:49:38;;;;;;;6.75;5.95;;;;;;;-1.76;100.00;61824.28;5095139;28;20216;-78
2024/01/09 09:52:06;;;;;;;10.02;5.38;;;;;;;-1.87;100.00;61808.03;5086049;28;20200;-82
2024/01/09 09:54:34;;;;;;;4.53;3.83;;;;;;;-2.25;100.00;61769.69;5089594;28;20239;-81
2024/01/09 09:57:02;;;;;;;2.53;2.30;;;;;;;-2.55;100.00;61736.53;5091772;28;20228;-81
2024/01/09 09:59:29;;;;;;;11.43;4.55;;;;;;;-2.34;100.00;61758.00;5090895;28;20225;-81
2024/01/09 10:01:56;;;;;;;6.05;2.70;;;;;;;-2.16;100.00;61775.91;5094639;28;20217;-81
2024/01/09 10:04:30;;;;;;;6.10;4.43;;;;;;;-2.34;100.00;61760.50;5090115;28;20216;-79
2024/01/09 10:06:58;;;;;;;4.80;4.32;;;;;;;-2.38;100.00;61759.41;5090035;28;20223;-79
2024/01/09 10:09:29;;;;;;;7.10;5.20;;;;;;;-1.90;100.00;61807.47;5089611;28;20266;-80
2024/01/09 10:11:56;;;;;;;5.25;4.30;;;;;;;-1.59;100.00;61836.69;5086699;28;20196;-81
2024/01/09 10:14:24;;;;;;;6.30;4.38;;;;;;;-1.43;100.00;61853.56;5098678;28;20212;-80
2024/01/09 10:16:53;;;;;;;4.35;3.95;;;;;;;-1.32;100.00;61867.31;5092264;28;20247;-79
2024/01/09 10:19:21;;;;;;;6.18;4.75;;;;;;;-1.17;100.00;61882.66;5075073;28;20243;-79
2024/01/09 10:21:48;;;;;;;4.60;4.20;;;;;;;-1.29;100.00;61862.91;5077702;28;20212;-80
2024/01/09 10:24:16;;;;;;;4.75;4.35;;;;;;;-1.15;100.00;61884.22;5090291;28;20270;-81
2024/01/09 10:26:43;;;;;;;4.95;3.60;;;;;;;-1.12;100.00;61884.28;5094252;28;20224;-81
2024/01/09 10:29:10;;;;;;;5.30;3.55;;;;;;;-1.36;100.00;61860.72;5090635;28;20217;-80
2024/01/09 10:31:39;;;;;;;8.55;4.05;;;;;;;-1.27;100.00;61869.44;5088768;28;20205;-79
2024/01/09 10:34:06;;;;;;;5.00;3.30;;;;;;;-1.77;100.00;61818.25;5089275;28;20220;-81
2024/01/09 10:36:33;;;;;;;1.75;1.65;;;;;;;-2.24;100.00;61772.72;5089951;28;20264;-80
2024/01/09 10:39:04;;;;;;;2.63;2.47;;;;;;;-2.61;100.00;61733.41;5089490;28;20295;-80
2024/01/09 10:41:31;;;;;;;3.60;3.30;;;;;;;-2.30;100.00;61767.06;5091039;28;20264;-80
2024/01/09 10:44:00;;;;;;;4.75;4.13;;;;;;;-2.20;100.00;61777.31;5088517;28;20209;-80
2024/01/09 10:46:29;;;;;;;4.22;3.88;;;;;;;-1.98;100.00;61797.31;5089218;28;20378;-79
2024/01/09 10:48:58;;;;;;;6.07;3.95;;;;;;;-2.11;100.00;61781.53;5091594;28;20217;-82
2024/01/09 10:51:25;;;;;;;5.75;3.70;;;;;;;-2.50;100.00;61752.13;5091906;28;20246;-79
2024/01/09 10:53:52;;;;;;;4.78;4.18;;;;;;;-2.62;100.00;61732.38;5091870;28;20585;-80
2024/01/09 10:56:20;;;;;;;6.65;4.75;;;;;;;-2.67;100.00;61729.25;5090562;28;20197;-79
2024/01/09 10:58:48;;;;;;;7.50;4.30;;;;;;;-2.76;100.00;61715.09;5090631;28;20248;-79
2024/01/09 11:01:15;;;;;;;4.25;3.53;;;;;;;-2.64;100.00;61735.31;5090010;28;20222;-79
2024/01/09 11:03:42;;;;;;;5.07;3.08;;;;;;;-2.91;100.00;61707.72;5096011;28;20205;-79
2024/01/09 11:06:11;;;;;;;4.55;3.88;;;;;;;-3.08;100.00;61682.38;5091552;28;20296;-80
2024/01/09 11:08:39;;;;;;;3.58;3.17;;;;;;;-3.10;100.00;61685.31;5088277;28;20243;-80
2024/01/09 11:11:08;;;;;;;5.45;4.32;;;;;;;-3.26;100.00;61669.47;5095959;28;20235;-81
2024/01/09 11:13:36;;;;;;;5.80;4.65;;;;;;;-3.29;100.00;61663.41;5078039;28;20235;-81
2024/01/09 11:16:04;;;;;;;4.32;4.00;;;;;;;-3.31;100.00;61664.38;5091493;28;20387;-81
2024/01/09 11:18:32;;;;;;;4.80;4.40;;;;;;;-3.36;100.00;61658.75;5093817;28;20236;-79
2024/01/09 11:21:00;;;;;;;7.00;4.63;;;;;;;-3.37;100.00;61657.72;5091283;28;20252;-81
2024/01/09 11:23:57;;;;;;;5.20;4.00;;;;;;;-3.19;100.00;61673.63;5090769;28;20204;-82
2024/01/09 11:26:27;;;;;;;8.77;5.45;;;;;;;-3.45;100.00;61647.59;5089474;28;20212;-81